Airfield :
LOGIN :

Register | Disclaimer

   EN    FR    IT 

 










Legend :    VFR   Marginal VFR   IFR   Intensive IFR   Very Intensive IFR
Visi :
Ceiling :
>= 8 km
>= 3000ft
5 to 8 km
1000 to 3000 ft
1500m to 5 km
500 to 1000 ft
800 to 1500m
200 to 500 ft
< 800m
< 200 ft
Symbols :   Thunderstorms  Fog  Heavy snow  Heavy precipitations  Wind > 20 kt
SIGMETs :     Misc.  Thunderstorms  Icing  Turbulence  Mountain Waves  Volcanic Ashes






- Airport Elevation : 821 ft
- IATA code : LYS


LFLL - Lyon St Exupéry / Satolas

CURRENT METAR :
  • 100500Z 33010KT 9999 SCT045 04/01 Q1028 NOSIG

EXPIRED METARs :
  • 100430Z 33014KT 9999 SCT045 04/01 Q1027 NOSIG
  • 100400Z 32015KT 9999 BKN045 05/01 Q1027 NOSIG
  • 100330Z 33013KT 9999 BKN040 05/01 Q1027 NOSIG
  • 100300Z 33014KT 9999 BKN038 05/01 Q1027 NOSIG
  • 100230Z 32015KT 9999 BKN030 05/02 Q1026 NOSIG

TAF TAF LFLL
Valid from the 10 at 00:00 until the 11 at 06:00 UTC


092300Z 1000/1106 34008KT 9999 BKN025
PROB40
TEMPO 1004/1011 BKN014
BECMG 1011/1014 CAVOK
BECMG 1016/1018 VRB02KT
BECMG 1104/1106 18005KT



MET'MAP, your aeronautical weather chart ! - Copyright ORBIFLY December 2007 - Disclaimer

ORBIFLY MET'MAP TEAM :

Programming & Development : Alexandra Zaïnal
Concept & original design : Baudouin d'Aumeries
Assistance for programming : Marc-Olivier Méhu
Technical & hardware support : Manuel Goepfert

Contact : metmap@orbifly.com




SOURCES & CREDITS :

   NOAA